Time;durP1;ratioP1;P1;durP2;ratioP2;P2;SDS_P1;SDS_P2;PMS_P1;PMS_P2;Temp;Humidity;BMP_temperature;BMP_pressure;BME280_temperature;BME280_humidity;BME280_pressure;Samples;Min_cycle;Max_cycle;Signal;HPM_P1;HPM_P2
2022/03/05 00:01:29;;;;;;;11.02;7.57;;;0.70;99.90;;;;;;4933592;28;20051;-60
2022/03/05 00:03:55;;;;;;;13.07;8.02;;;0.70;99.90;;;;;;4926641;28;20051;-58
2022/03/05 00:06:21;;;;;;;11.98;7.97;;;0.70;99.90;;;;;;4933002;28;20051;-60
2022/03/05 00:08:47;;;;;;;14.38;7.35;;;0.70;99.90;;;;;;4914842;28;20568;-57
2022/03/05 00:11:12;;;;;;;13.48;8.20;;;0.70;99.90;;;;;;4933540;28;20136;-61
2022/03/05 00:13:38;;;;;;;13.13;8.50;;;0.70;99.90;;;;;;4933762;28;20051;-58
2022/03/05 00:16:04;;;;;;;11.63;8.07;;;0.70;99.90;;;;;;4933444;28;20070;-59
2022/03/05 00:18:31;;;;;;;11.27;8.20;;;0.60;99.90;;;;;;4934525;28;20039;-56
2022/03/05 00:20:57;;;;;;;10.93;7.20;;;0.60;99.90;;;;;;4933792;28;20052;-60
2022/03/05 00:23:23;;;;;;;11.77;7.63;;;0.70;99.90;;;;;;4933824;28;20098;-59
2022/03/05 00:25:48;;;;;;;11.15;7.82;;;0.60;99.90;;;;;;4935271;28;20055;-57
2022/03/05 00:28:15;;;;;;;14.95;8.48;;;0.60;99.90;;;;;;4935585;28;20430;-60
2022/03/05 00:30:41;;;;;;;13.63;7.72;;;0.60;99.90;;;;;;4933729;28;20113;-58
2022/03/05 00:33:07;;;;;;;13.95;7.90;;;0.60;99.90;;;;;;4925877;28;20051;-61
2022/03/05 00:35:33;;;;;;;13.00;8.30;;;0.50;99.90;;;;;;4933687;28;20089;-56
2022/03/05 00:37:59;;;;;;;13.45;8.20;;;0.50;99.90;;;;;;4930616;28;20134;-56
2022/03/05 00:40:25;;;;;;;12.35;8.02;;;0.50;99.90;;;;;;4922773;28;20860;-58
2022/03/05 00:42:52;;;;;;;13.27;8.20;;;0.50;99.90;;;;;;4933410;28;20062;-60
2022/03/05 00:45:17;;;;;;;11.90;8.15;;;0.40;99.90;;;;;;4932340;28;20058;-59
2022/03/05 00:47:43;;;;;;;12.18;7.80;;;0.40;99.90;;;;;;4934044;28;20075;-58
2022/03/05 00:50:10;;;;;;;19.02;8.82;;;0.40;99.90;;;;;;4914556;28;20043;-59
2022/03/05 00:52:37;;;;;;;12.05;7.95;;;0.40;99.90;;;;;;4930284;28;20039;-60
2022/03/05 00:55:04;;;;;;;14.13;8.15;;;0.40;99.90;;;;;;4930576;28;20043;-60
2022/03/05 00:57:30;;;;;;;12.75;8.00;;;0.40;99.90;;;;;;4932720;28;20133;-60
2022/03/05 00:59:56;;;;;;;12.85;8.55;;;0.40;99.90;;;;;;4931732;28;20070;-57
2022/03/05 01:02:22;;;;;;;12.25;8.05;;;0.30;99.90;;;;;;4935163;28;20050;-60
2022/03/05 01:04:48;;;;;;;13.65;8.05;;;0.30;99.90;;;;;;4931454;28;20055;-63
2022/03/05 01:07:14;;;;;;;16.52;8.60;;;0.40;99.90;;;;;;4929058;28;20054;-58
2022/03/05 01:09:40;;;;;;;13.48;8.23;;;0.30;99.90;;;;;;4933282;28;20039;-57
2022/03/05 01:12:06;;;;;;;14.75;8.95;;;0.20;99.90;;;;;;4932227;28;20082;-60
2022/03/05 01:14:32;;;;;;;13.00;8.55;;;0.30;99.90;;;;;;4930098;28;20058;-58
2022/03/05 01:16:58;;;;;;;12.38;8.07;;;0.20;99.90;;;;;;4932491;28;20051;-58
2022/03/05 01:19:24;;;;;;;13.77;8.77;;;0.20;99.90;;;;;;4933408;28;21570;-59
2022/03/05 01:21:50;;;;;;;14.23;8.15;;;0.20;99.90;;;;;;4936095;28;20035;-57
2022/03/05 01:24:17;;;;;;;13.75;9.23;;;0.20;99.90;;;;;;4946843;28;20602;-59
2022/03/05 01:26:43;;;;;;;14.60;9.00;;;0.20;99.90;;;;;;4937624;28;20129;-57
2022/03/05 01:29:09;;;;;;;13.90;9.07;;;0.20;99.90;;;;;;4930712;28;20061;-57
2022/03/05 01:31:36;;;;;;;15.73;8.80;;;0.20;99.90;;;;;;4933098;28;20051;-59
2022/03/05 01:34:02;;;;;;;14.18;9.05;;;0.20;99.90;;;;;;4934090;28;20059;-56
2022/03/05 01:36:28;;;;;;;16.70;9.38;;;0.10;99.90;;;;;;4931550;28;20074;-60
2022/03/05 01:38:53;;;;;;;16.10;9.40;;;0.20;99.90;;;;;;4933630;28;20138;-60
2022/03/05 01:41:19;;;;;;;16.15;8.80;;;0.20;99.90;;;;;;4932780;28;20455;-60
2022/03/05 01:43:50;;;;;;;14.80;8.88;;;0.20;99.90;;;;;;4933052;28;20094;-57
2022/03/05 01:46:30;;;;;;;14.73;8.50;;;0.20;99.90;;;;;;4932662;28;20051;-59
2022/03/05 01:48:56;;;;;;;14.57;8.85;;;0.20;99.90;;;;;;4931256;28;20151;-59
2022/03/05 01:51:22;;;;;;;14.60;9.15;;;0.20;99.90;;;;;;4932594;28;20077;-60
2022/03/05 01:53:48;;;;;;;21.35;9.23;;;0.20;99.90;;;;;;4929049;28;20342;-60
2022/03/05 01:56:14;;;;;;;14.27;8.18;;;0.20;99.90;;;;;;4934609;28;20097;-60
2022/03/05 01:58:41;;;;;;;15.40;8.75;;;0.20;99.90;;;;;;4931241;28;20074;-58
2022/03/05 02:01:06;;;;;;;14.10;8.95;;;0.20;99.90;;;;;;4932131;28;20047;-56
2022/03/05 02:03:35;;;;;;;13.93;8.27;;;0.10;99.90;;;;;;4931588;28;20102;-60
2022/03/05 02:06:01;;;;;;;10.55;7.30;;;0.10;99.90;;;;;;4933004;28;20817;-58
2022/03/05 02:08:26;;;;;;;12.90;8.45;;;0.10;99.90;;;;;;4929725;28;20051;-59
2022/03/05 02:10:52;;;;;;;15.73;8.70;;;0.10;99.90;;;;;;4933098;28;20454;-59
2022/03/05 02:13:18;;;;;;;12.35;8.50;;;0.00;99.90;;;;;;4930391;28;20047;-56
2022/03/05 02:15:44;;;;;;;13.98;8.27;;;0.00;99.90;;;;;;4934981;28;20046;-59
2022/03/05 02:18:10;;;;;;;13.65;8.45;;;0.00;99.90;;;;;;4931966;28;20537;-60
2022/03/05 02:20:39;;;;;;;14.02;8.60;;;0.00;99.90;;;;;;4932915;28;20142;-60
2022/03/05 02:23:05;;;;;;;14.60;8.38;;;-0.10;99.90;;;;;;4940343;28;20053;-59
2022/03/05 02:25:30;;;;;;;11.65;7.85;;;-0.10;99.90;;;;;;4930893;28;20047;-60
2022/03/05 02:27:57;;;;;;;13.68;8.45;;;-0.10;99.90;;;;;;4932335;28;20054;-57
2022/03/05 02:30:23;;;;;;;14.68;8.65;;;-0.10;99.90;;;;;;4930721;28;20419;-60
2022/03/05 02:32:49;;;;;;;15.50;9.07;;;-0.20;99.90;;;;;;4931662;28;20063;-60
2022/03/05 02:35:15;;;;;;;14.35;8.40;;;-0.20;99.90;;;;;;4931912;28;20137;-57
2022/03/05 02:37:41;;;;;;;11.07;8.15;;;-0.20;99.90;;;;;;4931763;28;20062;-60
2022/03/05 02:40:07;;;;;;;13.70;8.80;;;-0.30;99.90;;;;;;4931551;28;20055;-57
2022/03/05 02:42:33;;;;;;;14.95;8.70;;;-0.30;99.90;;;;;;4931393;28;21948;-57
2022/03/05 02:44:59;;;;;;;13.32;8.43;;;-0.30;99.90;;;;;;4930231;28;20503;-59
2022/03/05 02:47:24;;;;;;;12.95;8.73;;;-0.30;99.90;;;;;;4937482;28;20396;-60
2022/03/05 02:49:53;;;;;;;13.00;8.73;;;-0.40;99.90;;;;;;4933709;28;20130;-60
2022/03/05 02:52:19;;;;;;;14.30;8.90;;;-0.40;99.90;;;;;;4930240;28;20088;-57
2022/03/05 02:54:45;;;;;;;13.43;8.27;;;-0.40;99.90;;;;;;4929577;28;20043;-57
2022/03/05 02:57:10;;;;;;;14.43;9.20;;;-0.30;99.90;;;;;;4933482;28;20055;-60
2022/03/05 02:59:36;;;;;;;13.95;8.90;;;-0.40;99.90;;;;;;4931748;28;20140;-60
2022/03/05 03:02:03;;;;;;;13.13;8.63;;;-0.40;99.90;;;;;;4933559;28;20568;-59
2022/03/05 03:04:28;;;;;;;12.68;8.45;;;-0.50;99.90;;;;;;4930869;28;20051;-60
2022/03/05 03:06:54;;;;;;;14.38;8.65;;;-0.50;99.90;;;;;;4933784;28;20498;-59
2022/03/05 03:09:20;;;;;;;15.43;8.30;;;-0.50;99.90;;;;;;4930949;28;20051;-60
2022/03/05 03:11:46;;;;;;;15.07;9.27;;;-0.50;99.90;;;;;;4932031;28;20043;-60
2022/03/05 03:14:12;;;;;;;14.93;8.57;;;-0.60;99.90;;;;;;4931011;28;20055;-55
2022/03/05 03:16:37;;;;;;;14.02;8.70;;;-0.60;99.90;;;;;;4933684;28;20060;-59
2022/03/05 03:19:03;;;;;;;13.73;9.20;;;-0.60;99.90;;;;;;4937295;28;20043;-59
2022/03/05 03:21:29;;;;;;;12.63;8.60;;;-0.60;99.90;;;;;;4934469;28;20059;-59
2022/03/05 03:23:55;;;;;;;16.80;8.75;;;-0.60;99.90;;;;;;4936491;28;20074;-60
2022/03/05 03:26:20;;;;;;;14.77;8.52;;;-0.60;99.90;;;;;;4934670;28;20054;-58
2022/03/05 03:28:46;;;;;;;14.05;8.80;;;-0.60;99.90;;;;;;4932763;28;20059;-60
2022/03/05 03:31:12;;;;;;;13.70;8.35;;;-0.60;99.90;;;;;;4933655;28;20466;-57
2022/03/05 03:33:38;;;;;;;16.27;8.30;;;-0.70;99.90;;;;;;4930722;28;20772;-59
2022/03/05 03:36:04;;;;;;;13.55;9.07;;;-0.70;99.90;;;;;;4935318;28;20105;-57
2022/03/05 03:38:30;;;;;;;14.38;9.65;;;-0.70;99.90;;;;;;4942958;28;20137;-60
2022/03/05 03:40:55;;;;;;;13.30;8.80;;;-0.70;99.90;;;;;;4935976;28;20051;-56
2022/03/05 03:43:21;;;;;;;15.13;8.57;;;-0.70;99.90;;;;;;4932711;28;20112;-58
2022/03/05 03:45:47;;;;;;;12.10;7.93;;;-0.80;99.90;;;;;;4935945;28;20146;-60
2022/03/05 03:48:13;;;;;;;12.27;8.27;;;-0.70;99.90;;;;;;4932186;28;20052;-59
2022/03/05 03:50:38;;;;;;;14.25;8.88;;;-0.80;99.90;;;;;;4934561;28;20043;-59
2022/03/05 03:53:04;;;;;;;15.00;8.57;;;-0.80;99.90;;;;;;4934808;28;20521;-57
2022/03/05 03:55:30;;;;;;;13.57;9.00;;;-0.80;99.90;;;;;;4933226;28;20506;-57
2022/03/05 03:57:56;;;;;;;12.05;8.32;;;-0.80;99.90;;;;;;4935597;28;20046;-60
2022/03/05 04:00:23;;;;;;;13.63;7.78;;;-0.80;99.90;;;;;;4935262;28;20039;-59
2022/03/05 04:02:49;;;;;;;15.18;8.63;;;-0.90;99.90;;;;;;4935392;28;20985;-57
2022/03/05 04:05:15;;;;;;;12.48;8.10;;;-0.90;99.90;;;;;;4933094;28;20058;-55
2022/03/05 04:10:25;;;;;;;14.32;8.63;;;-1.00;99.90;;;;;;4932380;28;20261;-60
2022/03/05 04:12:51;;;;;;;13.85;8.48;;;-1.00;99.90;;;;;;4933633;28;20054;-60
2022/03/05 04:15:17;;;;;;;12.77;8.57;;;-1.00;99.90;;;;;;4934284;28;20055;-60
2022/03/05 04:17:43;;;;;;;11.23;7.80;;;-1.00;99.90;;;;;;4933035;28;20393;-59
2022/03/05 04:20:10;;;;;;;15.77;8.52;;;-1.10;99.90;;;;;;4936359;28;20074;-57
2022/03/05 04:22:36;;;;;;;15.55;8.55;;;-1.10;99.90;;;;;;4933083;28;20721;-59
2022/03/05 04:25:03;;;;;;;13.63;8.63;;;-1.10;99.90;;;;;;4934222;28;20142;-59
2022/03/05 04:27:29;;;;;;;13.90;8.05;;;-1.10;99.90;;;;;;4935183;28;20773;-58
2022/03/05 04:29:55;;;;;;;12.50;7.97;;;-1.20;99.90;;;;;;4929776;28;20142;-56
2022/03/05 04:32:21;;;;;;;13.30;8.32;;;-1.20;99.90;;;;;;4931612;28;20070;-58
2022/03/05 04:34:46;;;;;;;12.00;7.88;;;-1.20;99.90;;;;;;4915087;28;20964;-58
2022/03/05 04:37:12;;;;;;;11.43;7.63;;;-1.20;99.90;;;;;;4942623;28;20055;-59
2022/03/05 04:39:38;;;;;;;12.10;8.15;;;-1.20;99.90;;;;;;4933272;28;20051;-60
2022/03/05 04:42:04;;;;;;;15.35;8.15;;;-1.20;99.90;;;;;;4930955;28;20157;-60
2022/03/05 04:44:30;;;;;;;14.35;7.97;;;-1.30;99.90;;;;;;4933425;28;20043;-57
2022/03/05 04:46:56;;;;;;;12.95;7.35;;;-1.20;99.90;;;;;;4935334;28;20046;-59
2022/03/05 04:49:23;;;;;;;11.43;7.50;;;-1.20;99.90;;;;;;4933038;28;20533;-59
2022/03/05 04:51:49;;;;;;;12.95;7.72;;;-1.30;99.90;;;;;;4935693;28;20130;-58
2022/03/05 04:54:15;;;;;;;11.35;7.60;;;-1.30;99.90;;;;;;4932827;28;20153;-59
2022/03/05 04:56:40;;;;;;;13.73;7.15;;;-1.30;99.90;;;;;;4933765;28;20046;-59
2022/03/05 04:59:06;;;;;;;12.40;7.82;;;-1.30;99.90;;;;;;4930541;28;20453;-57
2022/03/05 05:01:32;;;;;;;14.48;8.00;;;-1.30;99.90;;;;;;4935168;28;20619;-60
2022/03/05 05:03:58;;;;;;;10.25;7.47;;;-1.40;99.90;;;;;;4933070;28;20844;-59
2022/03/05 05:06:24;;;;;;;11.27;7.50;;;-1.40;99.90;;;;;;4932792;28;20043;-60
2022/03/05 05:08:51;;;;;;;12.88;8.18;;;-1.40;99.90;;;;;;4933196;28;20055;-58
2022/03/05 05:11:17;;;;;;;12.40;8.23;;;-1.40;99.90;;;;;;4917585;28;20600;-59
2022/03/05 05:13:43;;;;;;;13.52;7.38;;;-1.40;99.90;;;;;;4932091;28;20093;-59
2022/03/05 05:16:09;;;;;;;11.05;7.28;;;-1.40;99.90;;;;;;4932488;28;20055;-58
2022/03/05 05:18:35;;;;;;;12.32;7.68;;;-1.40;99.90;;;;;;4933459;28;20102;-59
2022/03/05 05:21:01;;;;;;;15.90;7.60;;;-1.40;99.90;;;;;;4934094;28;20065;-58
2022/03/05 05:23:27;;;;;;;16.23;7.88;;;-1.40;99.90;;;;;;4931730;28;20054;-58
2022/03/05 05:25:53;;;;;;;12.10;7.35;;;-1.40;99.90;;;;;;4932376;28;20058;-58
2022/03/05 05:28:19;;;;;;;13.13;8.07;;;-1.40;99.90;;;;;;4932904;28;20055;-53
2022/03/05 05:30:44;;;;;;;13.38;7.88;;;-1.40;99.90;;;;;;4934628;28;20050;-57
2022/03/05 05:33:10;;;;;;;11.73;7.30;;;-1.40;99.90;;;;;;4933148;28;20066;-60
2022/03/05 05:35:36;;;;;;;12.68;7.32;;;-1.40;99.90;;;;;;4933373;28;20062;-56
2022/03/05 05:38:02;;;;;;;11.00;7.25;;;-1.40;99.90;;;;;;4932491;28;20051;-58
2022/03/05 05:40:28;;;;;;;12.05;7.90;;;-1.40;99.90;;;;;;4929642;28;22784;-56
2022/03/05 05:42:54;;;;;;;15.15;7.85;;;-1.40;99.90;;;;;;4934303;28;20054;-60
2022/03/05 05:45:20;;;;;;;14.98;7.75;;;-1.40;99.90;;;;;;4933791;28;20109;-58
2022/03/05 05:47:45;;;;;;;11.32;7.30;;;-1.40;99.90;;;;;;4935266;28;20793;-60
2022/03/05 05:50:11;;;;;;;13.27;7.97;;;-1.40;99.90;;;;;;4930218;28;20051;-59
2022/03/05 05:52:38;;;;;;;13.48;8.00;;;-1.30;99.90;;;;;;4933670;28;20051;-59
2022/03/05 05:55:04;;;;;;;12.57;7.40;;;-1.40;99.90;;;;;;4924996;28;20117;-60
2022/03/05 05:57:30;;;;;;;13.35;7.97;;;-1.40;99.90;;;;;;4930407;28;20148;-57
2022/03/05 05:59:56;;;;;;;14.90;8.07;;;-1.30;99.90;;;;;;4932656;28;20126;-55
2022/03/05 06:02:22;;;;;;;12.50;7.78;;;-1.40;99.90;;;;;;4931065;28;20603;-57
2022/03/05 06:04:47;;;;;;;13.32;7.20;;;-1.40;99.90;;;;;;4933579;28;20490;-60
2022/03/05 06:07:13;;;;;;;11.73;7.30;;;-1.40;99.90;;;;;;4934261;28;20145;-59
2022/03/05 06:09:39;;;;;;;11.45;7.68;;;-1.50;99.90;;;;;;4932960;28;20055;-59
2022/03/05 06:12:05;;;;;;;13.98;7.53;;;-1.50;99.90;;;;;;4931739;28;20047;-59
2022/03/05 06:14:31;;;;;;;12.05;7.65;;;-1.50;99.90;;;;;;4930831;28;20133;-58
2022/03/05 06:16:57;;;;;;;11.77;7.80;;;-1.50;99.90;;;;;;4932201;28;20133;-59
2022/03/05 06:19:22;;;;;;;13.65;8.45;;;-1.50;99.90;;;;;;4932209;28;20142;-59
2022/03/05 06:21:48;;;;;;;11.38;7.57;;;-1.60;99.90;;;;;;4932405;28;20062;-57
2022/03/05 06:24:14;;;;;;;13.13;8.30;;;-1.60;99.90;;;;;;4933642;28;20086;-60
2022/03/05 06:26:40;;;;;;;12.52;8.23;;;-1.60;99.90;;;;;;4931191;28;20505;-54
2022/03/05 06:29:06;;;;;;;12.10;8.13;;;-1.60;99.90;;;;;;4931085;28;20065;-58
2022/03/05 06:31:31;;;;;;;15.50;8.50;;;-1.60;99.90;;;;;;4937651;28;20125;-59
2022/03/05 06:33:57;;;;;;;12.98;8.40;;;-1.60;99.90;;;;;;4940088;28;20146;-59
2022/03/05 06:36:23;;;;;;;12.75;8.10;;;-1.60;99.90;;;;;;4940169;28;20062;-59
2022/03/05 06:38:49;;;;;;;11.30;7.53;;;-1.60;99.90;;;;;;4937808;28;20193;-58
2022/03/05 06:41:15;;;;;;;14.23;8.90;;;-1.60;99.90;;;;;;4937013;28;20409;-60
2022/03/05 06:43:41;;;;;;;15.07;9.27;;;-1.20;99.90;;;;;;4938608;28;20093;-59
2022/03/05 06:46:06;;;;;;;14.25;9.45;;;-1.60;99.90;;;;;;4935744;28;20047;-59
2022/03/05 06:48:32;;;;;;;14.02;9.35;;;-1.60;99.90;;;;;;4936041;28;20490;-57
2022/03/05 06:50:58;;;;;;;14.25;8.85;;;-1.50;99.90;;;;;;4934027;28;20385;-60
2022/03/05 06:53:24;;;;;;;14.05;9.18;;;-1.50;99.90;;;;;;4939256;28;20739;-56
2022/03/05 06:55:50;;;;;;;13.82;8.48;;;-1.50;99.90;;;;;;4940348;28;20109;-60
2022/03/05 06:58:17;;;;;;;11.30;7.97;;;-1.50;99.90;;;;;;4937304;28;20420;-60
2022/03/05 07:00:43;;;;;;;13.70;8.50;;;-1.40;99.90;;;;;;4939967;28;20252;-59
2022/03/05 07:03:09;;;;;;;14.48;9.20;;;-1.40;99.90;;;;;;4939189;28;20075;-57
2022/03/05 07:05:35;;;;;;;15.52;9.60;;;-1.40;99.90;;;;;;4941158;28;20519;-57
2022/03/05 07:08:01;;;;;;;12.48;8.63;;;-1.40;99.90;;;;;;4943386;28;20134;-60
2022/03/05 07:10:27;;;;;;;14.10;9.18;;;-1.30;99.90;;;;;;4940304;28;20043;-57
2022/03/05 07:12:53;;;;;;;13.88;9.02;;;-1.30;99.90;;;;;;4938935;28;20047;-58
2022/03/05 07:15:18;;;;;;;16.88;8.68;;;-1.30;99.90;;;;;;4939088;28;20083;-59
2022/03/05 07:17:49;;;;;;;16.45;9.63;;;-1.20;99.90;;;;;;4941478;28;20394;-59
2022/03/05 07:20:15;;;;;;;14.88;8.90;;;-1.20;99.90;;;;;;4935909;28;20051;-59
2022/03/05 07:22:41;;;;;;;14.75;9.30;;;-1.20;99.90;;;;;;4940092;28;20126;-55
2022/03/05 07:25:07;;;;;;;17.15;8.82;;;-1.20;99.90;;;;;;4942465;28;20051;-58
2022/03/05 07:27:33;;;;;;;16.75;9.38;;;-1.10;99.90;;;;;;4943258;29;20058;-60
2022/03/05 07:29:59;;;;;;;13.75;8.82;;;-1.10;99.90;;;;;;4940954;28;20047;-59
2022/03/05 07:32:25;;;;;;;14.93;8.90;;;-1.00;99.90;;;;;;4940208;28;20051;-60
2022/03/05 07:34:50;;;;;;;14.93;9.73;;;-1.00;99.90;;;;;;4942022;28;20048;-60
2022/03/05 07:37:16;;;;;;;16.20;10.02;;;-0.90;99.90;;;;;;4942990;29;20559;-60
2022/03/05 07:39:42;;;;;;;14.98;9.50;;;-0.90;99.90;;;;;;4940596;28;20053;-60
2022/03/05 07:42:08;;;;;;;16.10;10.18;;;-0.90;99.90;;;;;;4943665;29;20115;-59
2022/03/05 07:44:34;;;;;;;13.38;9.48;;;-0.90;99.90;;;;;;4942256;28;20557;-55
2022/03/05 07:47:00;;;;;;;18.02;10.20;;;-0.80;99.90;;;;;;4943381;28;20043;-60
2022/03/05 07:49:26;;;;;;;15.35;10.27;;;-0.70;99.90;;;;;;4942538;28;20490;-59
2022/03/05 07:51:52;;;;;;;17.13;9.73;;;-0.70;99.90;;;;;;4942036;29;20560;-60
2022/03/05 07:54:18;;;;;;;13.80;9.95;;;-0.60;99.90;;;;;;4941696;28;20044;-59
2022/03/05 07:56:46;;;;;;;16.80;10.65;;;-0.50;99.90;;;;;;4940744;28;20051;-60
2022/03/05 07:59:12;;;;;;;16.05;10.80;;;-0.50;99.90;;;;;;4941929;28;20046;-60
2022/03/05 08:01:37;;;;;;;18.98;10.68;;;-0.40;99.90;;;;;;4941853;28;20059;-58
2022/03/05 08:04:03;;;;;;;14.70;10.20;;;-0.30;99.90;;;;;;4944957;28;20058;-59
2022/03/05 08:06:29;;;;;;;18.60;11.05;;;-0.20;99.90;;;;;;4945931;29;20031;-60
2022/03/05 08:08:57;;;;;;;15.90;10.05;;;-0.20;99.90;;;;;;4945486;28;20050;-60
2022/03/05 08:11:23;;;;;;;17.15;10.80;;;-0.10;99.90;;;;;;4945261;29;20043;-60
2022/03/05 08:13:49;;;;;;;19.30;10.60;;;0.00;99.90;;;;;;4936941;28;20051;-59
2022/03/05 08:16:15;;;;;;;19.33;11.68;;;0.00;99.90;;;;;;4945510;28;20058;-60
2022/03/05 08:18:40;;;;;;;17.55;10.20;;;0.10;99.90;;;;;;4943998;28;20055;-56
2022/03/05 08:21:07;;;;;;;16.63;10.73;;;0.20;99.90;;;;;;4939186;28;20815;-60
2022/03/05 08:23:33;;;;;;;17.08;10.57;;;0.30;99.90;;;;;;4939842;28;20070;-59
2022/03/05 08:25:58;;;;;;;17.60;10.20;;;0.50;99.90;;;;;;4944815;28;20760;-59
2022/03/05 08:28:24;;;;;;;18.50;10.45;;;0.50;99.90;;;;;;4944756;28;20891;-58
2022/03/05 08:30:50;;;;;;;17.27;11.02;;;0.70;99.90;;;;;;4943785;28;20501;-60
2022/03/05 08:33:17;;;;;;;20.30;10.65;;;0.80;99.90;;;;;;4944455;28;20585;-60
2022/03/05 08:35:43;;;;;;;23.63;10.68;;;0.90;99.90;;;;;;4945467;28;20051;-60
2022/03/05 08:38:09;;;;;;;17.80;10.63;;;1.10;99.90;;;;;;4943811;28;20496;-60
2022/03/05 08:40:35;;;;;;;17.90;9.77;;;1.20;99.90;;;;;;4943347;28;20123;-56
2022/03/05 08:43:01;;;;;;;18.75;10.75;;;1.40;99.90;;;;;;4944125;29;20054;-59
2022/03/05 08:45:27;;;;;;;16.58;10.15;;;1.50;99.90;;;;;;4944139;28;20072;-59
2022/03/05 08:47:52;;;;;;;15.77;9.98;;;1.60;99.90;;;;;;4945424;29;20109;-59
2022/03/05 08:50:18;;;;;;;15.60;9.90;;;1.70;99.90;;;;;;4943353;28;20059;-59
2022/03/05 08:52:44;;;;;;;16.38;10.43;;;1.80;99.90;;;;;;4941728;28;20089;-59
2022/03/05 08:55:12;;;;;;;16.88;10.05;;;1.90;99.90;;;;;;4944027;28;20406;-59
2022/03/05 08:57:39;;;;;;;17.58;10.82;;;2.00;99.90;;;;;;4941021;28;20058;-57
2022/03/05 09:00:08;;;;;;;17.73;10.88;;;2.10;99.90;;;;;;4942104;28;20133;-57
2022/03/05 09:02:34;;;;;;;17.25;10.57;;;2.20;99.90;;;;;;4942649;28;20121;-59
2022/03/05 09:05:01;;;;;;;19.23;11.80;;;2.30;99.90;;;;;;4942248;28;20054;-58
2022/03/05 09:07:27;;;;;;;18.17;10.88;;;2.40;99.90;;;;;;4945271;28;20135;-59
2022/03/05 09:09:53;;;;;;;19.02;10.30;;;2.50;99.90;;;;;;4943780;28;20089;-58
2022/03/05 09:12:19;;;;;;;16.95;10.32;;;2.60;99.90;;;;;;4942571;28;20448;-60
2022/03/05 09:14:46;;;;;;;16.40;10.13;;;2.70;99.90;;;;;;4927866;29;20051;-59
2022/03/05 09:17:13;;;;;;;16.67;10.68;;;2.80;99.90;;;;;;4944457;29;20054;-59
2022/03/05 09:19:39;;;;;;;18.77;10.18;;;2.90;99.90;;;;;;4941843;28;20560;-59
2022/03/05 09:22:07;;;;;;;15.30;9.77;;;3.00;99.90;;;;;;4945090;28;20043;-56
2022/03/05 09:24:33;;;;;;;19.30;10.73;;;3.00;99.90;;;;;;4944059;28;20441;-60
2022/03/05 09:26:59;;;;;;;18.75;11.00;;;3.10;99.90;;;;;;4935895;28;20055;-60
2022/03/05 09:29:25;;;;;;;16.83;11.23;;;3.20;99.90;;;;;;4942031;28;20138;-60
2022/03/05 09:31:51;;;;;;;19.02;10.52;;;3.30;99.90;;;;;;4939501;28;20055;-60
2022/03/05 09:34:17;;;;;;;18.25;10.52;;;3.50;99.90;;;;;;4944090;28;20055;-59
2022/03/05 09:36:43;;;;;;;18.70;11.65;;;3.50;99.90;;;;;;4938820;28;20125;-60
2022/03/05 09:39:09;;;;;;;17.27;10.63;;;3.70;99.90;;;;;;4936060;28;20054;-57
2022/03/05 09:41:39;;;;;;;21.08;10.82;;;3.80;99.90;;;;;;4942673;28;20123;-60
2022/03/05 09:44:05;;;;;;;16.75;10.73;;;3.80;99.90;;;;;;4955547;28;20057;-59
2022/03/05 09:46:31;;;;;;;20.13;11.70;;;3.90;99.90;;;;;;4940117;28;20051;-57
2022/03/05 09:48:58;;;;;;;20.48;11.48;;;4.10;99.90;;;;;;4942967;28;20058;-57
2022/03/05 09:51:24;;;;;;;19.35;10.93;;;4.10;99.90;;;;;;4939649;28;20550;-59
2022/03/05 09:53:54;;;;;;;25.25;11.93;;;4.20;99.90;;;;;;4940136;28;20102;-59
2022/03/05 09:56:20;;;;;;;18.98;11.10;;;4.40;99.90;;;;;;4943639;28;20159;-59
2022/03/05 09:58:51;;;;;;;20.23;11.52;;;4.50;99.90;;;;;;4942402;28;20511;-54
2022/03/05 10:01:18;;;;;;;21.13;11.43;;;4.70;99.90;;;;;;4941832;28;20137;-59
2022/03/05 10:03:48;;;;;;;19.70;11.93;;;4.70;99.20;;;;;;4939019;28;20054;-56
2022/03/05 10:06:19;;;;;;;20.30;11.02;;;4.60;97.80;;;;;;4939933;28;20074;-58
2022/03/05 10:08:46;;;;;;;18.50;11.32;;;4.70;97.80;;;;;;4938743;28;20501;-58
2022/03/05 10:11:12;;;;;;;20.55;12.00;;;4.70;97.10;;;;;;4941337;28;20051;-58
2022/03/05 10:13:42;;;;;;;18.20;11.32;;;4.80;96.80;;;;;;4942343;28;20043;-59
2022/03/05 10:16:24;;;;;;;18.45;11.13;;;4.90;96.70;;;;;;4942604;28;20082;-59
2022/03/05 10:18:51;;;;;;;19.27;11.05;;;4.90;95.90;;;;;;4942682;28;20058;-59
2022/03/05 10:21:16;;;;;;;20.85;11.15;;;5.00;96.30;;;;;;4942771;28;20068;-57
2022/03/05 10:23:47;;;;;;;19.38;11.52;;;5.10;96.20;;;;;;4939772;28;20054;-59
2022/03/05 10:26:15;;;;;;;21.45;11.82;;;5.30;96.00;;;;;;4941625;28;20055;-59
2022/03/05 10:28:41;;;;;;;20.02;11.05;;;5.40;95.10;;;;;;4942033;28;20051;-59
2022/03/05 10:31:11;;;;;;;19.45;12.02;;;5.40;94.50;;;;;;4941505;28;20086;-57
2022/03/05 10:33:38;;;;;;;19.38;11.35;;;5.50;94.80;;;;;;4940692;28;20055;-57
2022/03/05 10:36:16;;;;;;;21.23;11.95;;;5.70;94.30;;;;;;4942424;28;20051;-56
2022/03/05 10:39:04;;;;;;;19.75;11.25;;;5.80;94.40;;;;;;4940835;28;20043;-59
2022/03/05 10:41:40;;;;;;;16.83;11.13;;;6.00;92.60;;;;;;4930782;28;20035;-59
2022/03/05 10:44:17;;;;;;;18.23;11.60;;;6.00;91.80;;;;;;4941894;28;20062;-58
2022/03/05 10:47:01;;;;;;;18.90;11.45;;;6.10;92.20;;;;;;4942846;28;20082;-58
2022/03/05 10:49:38;;;;;;;17.10;10.68;;;6.20;92.00;;;;;;4942939;28;20058;-59
2022/03/05 10:52:07;;;;;;;21.23;12.45;;;6.20;91.10;;;;;;4944105;29;20086;-56
2022/03/05 10:54:38;;;;;;;19.48;11.82;;;6.30;91.10;;;;;;4923427;28;20818;-58
2022/03/05 10:57:18;;;;;;;18.50;11.68;;;6.40;91.00;;;;;;4941945;28;20051;-58
2022/03/05 10:59:47;;;;;;;19.73;12.23;;;6.60;90.60;;;;;;4940638;28;20140;-54
2022/03/05 11:02:15;;;;;;;20.70;12.75;;;6.70;89.10;;;;;;4941058;28;20239;-57
2022/03/05 11:04:45;;;;;;;20.23;12.07;;;6.80;88.30;;;;;;4940947;28;20047;-57
2022/03/05 11:07:12;;;;;;;17.65;11.35;;;6.80;87.60;;;;;;4942362;28;20047;-56
2022/03/05 11:09:42;;;;;;;19.25;11.32;;;7.00;86.50;;;;;;4941505;28;20473;-59
2022/03/05 11:12:09;;;;;;;19.17;11.60;;;7.10;86.30;;;;;;4940529;28;20051;-58
2022/03/05 11:14:39;;;;;;;19.52;11.80;;;7.10;85.00;;;;;;4941565;28;20047;-58
2022/03/05 11:17:05;;;;;;;19.45;11.63;;;7.20;83.50;;;;;;4939536;28;20536;-60
2022/03/05 11:19:32;;;;;;;18.00;11.07;;;7.20;83.20;;;;;;4941383;28;20063;-58
2022/03/05 11:21:58;;;;;;;20.67;12.27;;;7.50;83.40;;;;;;4938037;28;20717;-58
2022/03/05 11:24:25;;;;;;;18.33;11.38;;;7.40;83.50;;;;;;4942413;28;20067;-58
2022/03/05 11:26:53;;;;;;;18.95;11.25;;;7.60;82.50;;;;;;4937847;28;20532;-59
2022/03/05 11:29:23;;;;;;;18.30;11.02;;;7.60;81.50;;;;;;4940183;28;20052;-58
2022/03/05 11:31:49;;;;;;;20.15;12.05;;;7.80;81.30;;;;;;4938610;28;20055;-58
2022/03/05 11:34:17;;;;;;;21.17;12.75;;;7.90;80.00;;;;;;4938816;28;20047;-58
2022/03/05 11:36:45;;;;;;;21.05;12.68;;;7.90;79.40;;;;;;4943806;28;20047;-57
2022/03/05 11:39:27;;;;;;;19.35;11.55;;;8.00;79.90;;;;;;4943653;28;20047;-58
2022/03/05 11:41:55;;;;;;;18.27;11.38;;;8.20;79.40;;;;;;4945164;28;20474;-59
2022/03/05 11:44:28;;;;;;;20.48;12.32;;;8.30;78.10;;;;;;4938658;28;20106;-58
2022/03/05 11:47:18;;;;;;;18.45;12.07;;;8.30;77.30;;;;;;4941982;28;20815;-57
2022/03/05 11:49:58;;;;;;;18.98;11.80;;;8.40;76.70;;;;;;4943019;28;20750;-59
2022/03/05 11:52:46;;;;;;;20.45;11.40;;;8.40;76.20;;;;;;4943706;28;20379;-59
2022/03/05 11:55:20;;;;;;;17.13;11.52;;;8.50;76.00;;;;;;4943285;28;20794;-58
2022/03/05 11:57:51;;;;;;;18.02;11.52;;;8.50;74.00;;;;;;4945912;28;20109;-58
2022/03/05 12:00:29;;;;;;;16.27;11.70;;;8.60;73.80;;;;;;4942880;28;20060;-58
2022/03/05 12:02:56;;;;;;;19.67;12.15;;;8.60;73.50;;;;;;4940593;28;20047;-58
2022/03/05 12:05:44;;;;;;;20.02;13.07;;;8.60;73.00;;;;;;4942098;28;20039;-58
2022/03/05 12:08:25;;;;;;;19.58;12.57;;;8.70;72.80;;;;;;4938743;28;20043;-58
2022/03/05 12:11:10;;;;;;;19.77;12.32;;;8.80;73.30;;;;;;4938441;28;20047;-58
2022/03/05 12:13:58;;;;;;;18.63;11.82;;;8.90;71.20;;;;;;4934250;28;20035;-57
2022/03/05 12:16:24;;;;;;;17.52;11.65;;;8.90;71.80;;;;;;4939009;28;20062;-59
2022/03/05 12:18:52;;;;;;;16.80;11.02;;;9.00;71.80;;;;;;4937983;28;20102;-57
2022/03/05 12:21:32;;;;;;;14.93;10.93;;;9.00;70.80;;;;;;4938551;28;20054;-56
2022/03/05 12:23:59;;;;;;;20.48;12.00;;;9.10;70.10;;;;;;4939766;28;20668;-58
2022/03/05 12:26:38;;;;;;;20.55;12.30;;;9.10;70.70;;;;;;4943190;28;20126;-59
2022/03/05 12:29:08;;;;;;;17.40;12.00;;;9.20;69.70;;;;;;4941592;28;20051;-56
2022/03/05 12:31:39;;;;;;;18.17;12.55;;;9.20;69.30;;;;;;4940065;28;20521;-55
2022/03/05 12:34:05;;;;;;;18.83;11.73;;;9.20;68.90;;;;;;4945281;28;20051;-59
2022/03/05 12:36:30;;;;;;;21.10;13.02;;;9.20;68.70;;;;;;4907461;28;20055;-58
2022/03/05 12:38:59;;;;;;;19.80;11.98;;;9.30;69.10;;;;;;4938815;28;20086;-55
2022/03/05 12:41:26;;;;;;;17.92;12.18;;;9.50;69.30;;;;;;4944330;28;20057;-56